Time;durP1;ratioP1;P1;durP2;ratioP2;P2;SDS_P1;SDS_P2;PMS_P1;PMS_P2;Temp;Humidity;BMP_temperature;BMP_pressure;BME280_temperature;BME280_humidity;BME280_pressure;Samples;Min_cycle;Max_cycle;Signal;HPM_P1;HPM_P2
2024/03/01 00:00:18;;;;;;;12.00;7.63;;;10.90;99.90;;;;;;5053668;28;20063;-78
2024/03/01 00:02:44;;;;;;;9.77;6.07;;;11.00;99.90;;;;;;5053752;28;20032;-79
2024/03/01 00:05:10;;;;;;;9.02;6.70;;;11.00;99.90;;;;;;5052913;28;20025;-78
2024/03/01 00:07:35;;;;;;;9.63;6.70;;;11.00;99.90;;;;;;5052784;28;20486;-79
2024/03/01 00:10:01;;;;;;;11.23;6.57;;;10.90;99.90;;;;;;5053700;28;20058;-80
2024/03/01 00:12:27;;;;;;;12.15;7.10;;;10.90;99.90;;;;;;5053268;28;20105;-78
2024/03/01 00:14:53;;;;;;;10.77;6.45;;;11.00;99.90;;;;;;5051059;28;20495;-78
2024/03/01 00:34:09;;;;;;;13.18;7.03;;;11.00;99.90;;;;;;5040000;23;20048;-75
2024/03/01 00:36:34;;;;;;;9.05;6.63;;;11.00;99.90;;;;;;5033405;28;20021;-75
2024/03/01 00:39:00;;;;;;;10.73;6.65;;;10.90;99.90;;;;;;5033156;28;20380;-77
2024/03/01 00:41:26;;;;;;;13.52;6.88;;;11.00;99.90;;;;;;5032539;28;20439;-75
2024/03/01 00:43:51;;;;;;;11.32;7.53;;;11.00;99.90;;;;;;5032423;28;20520;-75
2024/03/01 00:46:17;;;;;;;11.57;7.18;;;11.00;99.90;;;;;;5033104;28;20030;-75
2024/03/01 00:48:43;;;;;;;12.02;6.93;;;11.00;99.90;;;;;;5032928;28;20021;-74
2024/03/01 00:51:09;;;;;;;12.30;7.10;;;10.90;99.90;;;;;;5032154;28;20021;-75
2024/03/01 00:53:34;;;;;;;11.82;7.60;;;11.00;99.90;;;;;;5031999;28;20496;-75
2024/03/01 00:56:00;;;;;;;10.57;7.00;;;10.90;99.90;;;;;;5031246;28;20025;-76
2024/03/01 00:58:26;;;;;;;10.38;7.10;;;10.90;99.90;;;;;;5032411;28;20497;-75
2024/03/01 01:00:52;;;;;;;9.00;6.53;;;10.90;99.90;;;;;;5032125;28;20018;-76
2024/03/01 01:03:18;;;;;;;10.20;5.75;;;10.90;99.90;;;;;;5032467;28;20043;-75
2024/03/01 01:05:44;;;;;;;9.00;5.65;;;10.90;99.90;;;;;;5032786;28;20096;-75
2024/03/01 01:08:10;;;;;;;13.02;6.38;;;11.00;99.90;;;;;;5032618;28;20052;-75
2024/03/01 01:10:36;;;;;;;6.60;5.13;;;11.00;99.90;;;;;;5032353;28;20026;-75
2024/03/01 01:13:02;;;;;;;8.48;5.70;;;10.90;99.90;;;;;;5031593;28;20512;-75
2024/03/01 01:15:28;;;;;;;8.40;4.70;;;10.90;99.90;;;;;;5032445;28;20033;-74
2024/03/01 01:17:53;;;;;;;5.80;4.47;;;10.80;99.90;;;;;;5032008;28;20375;-75
2024/03/01 01:20:19;;;;;;;6.32;4.45;;;10.80;99.90;;;;;;5032034;28;20034;-75
2024/03/01 01:22:45;;;;;;;7.18;4.38;;;10.90;99.90;;;;;;5032623;28;20377;-75
2024/03/01 01:25:10;;;;;;;5.43;4.35;;;10.90;99.90;;;;;;5032200;28;20044;-75
2024/03/01 01:27:36;;;;;;;6.10;4.53;;;10.90;99.90;;;;;;5031157;28;20604;-76
2024/03/01 01:30:02;;;;;;;4.75;3.58;;;11.00;99.90;;;;;;5032453;28;20433;-75
2024/03/01 01:32:28;;;;;;;5.10;3.70;;;11.00;99.90;;;;;;5014429;28;20020;-75
2024/03/01 01:34:54;;;;;;;6.07;4.18;;;10.90;99.90;;;;;;5031760;28;20041;-75
2024/03/01 01:37:19;;;;;;;12.35;4.45;;;10.90;99.90;;;;;;5030786;28;20032;-75
2024/03/01 01:39:45;;;;;;;4.68;3.60;;;10.80;99.90;;;;;;5032335;28;20401;-76
2024/03/01 01:42:11;;;;;;;3.88;3.17;;;10.90;99.90;;;;;;5032069;28;20045;-75
2024/03/01 01:44:36;;;;;;;5.47;4.05;;;10.90;99.90;;;;;;5032310;28;20500;-74
2024/03/01 01:47:02;;;;;;;8.48;4.38;;;10.90;99.90;;;;;;5032236;28;20022;-75
2024/03/01 01:49:29;;;;;;;7.00;4.35;;;10.90;99.90;;;;;;5032312;28;20025;-75
2024/03/01 01:51:56;;;;;;;5.88;3.67;;;10.80;99.90;;;;;;5031322;28;20021;-75
2024/03/01 01:54:24;;;;;;;6.55;3.90;;;10.80;99.90;;;;;;5014219;28;20049;-75
2024/03/01 01:56:50;;;;;;;5.68;4.10;;;10.90;99.90;;;;;;5031878;28;20018;-75
2024/03/01 01:59:16;;;;;;;5.68;4.03;;;10.80;99.90;;;;;;5031121;28;20555;-74
2024/03/01 02:01:43;;;;;;;4.95;3.95;;;10.80;99.90;;;;;;5032339;28;20018;-74
2024/03/01 02:04:09;;;;;;;4.47;4.03;;;10.80;99.90;;;;;;5035592;28;20103;-75
2024/03/01 02:06:35;;;;;;;7.00;4.00;;;10.90;99.90;;;;;;5036121;28;20030;-75
2024/03/01 02:09:12;;;;;;;5.70;3.72;;;10.90;99.90;;;;;;5035819;28;20030;-75
2024/03/01 02:11:38;;;;;;;8.85;3.97;;;11.00;99.90;;;;;;5036039;28;20033;-75
2024/03/01 02:14:04;;;;;;;4.30;3.30;;;11.00;99.90;;;;;;5035544;28;20103;-74
2024/03/01 02:16:30;;;;;;;4.68;3.88;;;10.90;99.90;;;;;;5035647;28;20037;-74
2024/03/01 02:18:56;;;;;;;4.40;3.53;;;11.00;99.90;;;;;;5035993;28;20485;-75
2024/03/01 02:21:25;;;;;;;3.53;3.13;;;10.80;99.90;;;;;;5035555;28;20033;-74
2024/03/01 02:23:50;;;;;;;3.72;3.40;;;10.90;99.90;;;;;;5035224;28;20029;-74
2024/03/01 02:26:16;;;;;;;3.58;3.20;;;11.00;99.90;;;;;;5017729;28;20504;-74
2024/03/01 02:28:46;;;;;;;6.93;3.47;;;11.00;99.90;;;;;;5035174;28;20032;-75
2024/03/01 02:31:12;;;;;;;4.47;3.25;;;11.00;99.90;;;;;;5035148;28;20550;-75
2024/03/01 02:33:38;;;;;;;3.97;3.00;;;11.00;99.90;;;;;;5035172;28;20551;-75
2024/03/01 02:36:04;;;;;;;4.28;3.28;;;10.90;99.90;;;;;;5035519;28;20048;-75
2024/03/01 02:38:30;;;;;;;3.53;3.22;;;10.90;99.90;;;;;;5034590;28;20057;-75
2024/03/01 02:40:55;;;;;;;4.70;3.08;;;10.90;99.90;;;;;;5035469;28;20452;-75
2024/03/01 02:43:21;;;;;;;5.57;3.03;;;10.90;99.90;;;;;;5035336;28;20033;-75
2024/03/01 02:45:47;;;;;;;3.15;2.78;;;11.00;99.90;;;;;;5035131;28;20420;-74
2024/03/01 02:48:13;;;;;;;3.25;2.80;;;11.00;99.90;;;;;;5035175;28;20535;-74
2024/03/01 02:50:39;;;;;;;3.90;3.05;;;11.00;99.90;;;;;;5034955;28;20053;-74
2024/03/01 02:53:05;;;;;;;3.95;3.40;;;11.00;99.90;;;;;;5035045;28;20022;-75
2024/03/01 02:55:31;;;;;;;4.07;3.10;;;11.00;99.90;;;;;;5034943;28;20033;-74
2024/03/01 02:57:56;;;;;;;4.38;3.10;;;11.10;99.90;;;;;;5034831;28;20428;-74
2024/03/01 03:00:23;;;;;;;5.70;3.85;;;11.00;99.90;;;;;;5034799;28;20018;-76
2024/03/01 03:02:49;;;;;;;4.95;3.55;;;11.00;99.90;;;;;;5034852;28;20026;-76
2024/03/01 03:05:15;;;;;;;4.13;3.70;;;10.90;99.90;;;;;;5034767;28;20018;-76
2024/03/01 03:07:41;;;;;;;4.93;4.25;;;11.00;99.90;;;;;;5034208;28;20088;-76
2024/03/01 03:10:07;;;;;;;5.00;3.88;;;11.00;99.90;;;;;;5017291;28;20555;-76
2024/03/01 03:12:33;;;;;;;4.55;3.83;;;11.00;99.90;;;;;;5034789;28;20428;-77
2024/03/01 03:15:07;;;;;;;5.55;4.60;;;10.90;99.90;;;;;;5029773;28;20053;-77
2024/03/01 03:17:34;;;;;;;4.30;3.92;;;10.90;99.90;;;;;;5031391;28;20041;-76
2024/03/01 03:20:00;;;;;;;5.28;4.10;;;10.90;99.90;;;;;;5033600;28;20076;-75
2024/03/01 03:22:26;;;;;;;5.15;4.07;;;10.90;99.90;;;;;;5034184;28;20024;-75
2024/03/01 03:24:51;;;;;;;4.60;4.15;;;10.90;99.90;;;;;;5034097;28;20049;-75
2024/03/01 03:27:17;;;;;;;5.38;4.70;;;11.00;99.90;;;;;;5033920;28;20024;-75
2024/03/01 03:29:43;;;;;;;5.28;4.55;;;10.90;99.90;;;;;;5033815;28;20465;-75
2024/03/01 03:32:08;;;;;;;6.80;4.20;;;10.90;99.90;;;;;;5016032;28;20045;-77
2024/03/01 03:34:34;;;;;;;4.47;4.07;;;10.90;99.90;;;;;;5034007;28;20512;-76
2024/03/01 03:37:00;;;;;;;5.45;4.30;;;11.00;99.90;;;;;;5033854;28;20555;-76
2024/03/01 03:39:25;;;;;;;7.18;4.38;;;11.00;99.90;;;;;;5032520;28;20429;-75
2024/03/01 03:41:51;;;;;;;3.95;3.25;;;10.90;99.90;;;;;;5034128;28;20489;-75
2024/03/01 03:44:19;;;;;;;4.53;3.50;;;10.80;99.90;;;;;;5034215;28;20461;-76
2024/03/01 03:46:47;;;;;;;4.25;3.85;;;10.70;99.90;;;;;;5034054;28;20068;-76
2024/03/01 03:49:13;;;;;;;3.50;3.00;;;10.60;99.90;;;;;;5016458;28;20032;-75
2024/03/01 03:51:38;;;;;;;3.88;3.58;;;10.60;99.90;;;;;;5033823;28;20033;-75
2024/03/01 03:54:04;;;;;;;4.10;3.70;;;10.50;99.90;;;;;;5033953;28;20531;-75
2024/03/01 03:56:31;;;;;;;2.40;2.20;;;10.50;99.90;;;;;;5033813;28;20033;-76
2024/03/01 03:58:57;;;;;;;2.40;1.70;;;10.40;99.90;;;;;;5033332;28;20021;-75
2024/03/01 04:01:23;;;;;;;2.38;1.48;;;10.20;99.90;;;;;;5033871;28;20029;-75
2024/03/01 04:03:49;;;;;;;1.42;1.23;;;10.20;99.90;;;;;;5015883;28;20676;-77
2024/03/01 04:06:14;;;;;;;1.20;1.10;;;10.20;99.90;;;;;;5033714;28;20021;-77
2024/03/01 04:08:40;;;;;;;1.45;1.35;;;10.10;99.90;;;;;;5033500;28;20045;-75
2024/03/01 04:11:07;;;;;;;1.10;0.90;;;10.20;99.90;;;;;;5033215;28;20025;-76
2024/03/01 04:13:36;;;;;;;1.10;1.00;;;10.30;99.90;;;;;;5033466;28;20377;-76
2024/03/01 04:16:06;;;;;;;0.85;0.82;;;10.20;99.90;;;;;;5033521;28;20034;-76
2024/03/01 04:18:33;;;;;;;1.05;1.00;;;10.30;99.90;;;;;;5033467;28;20032;-76
2024/03/01 04:20:59;;;;;;;1.95;1.02;;;10.20;99.90;;;;;;5033374;28;20044;-77
2024/03/01 04:23:26;;;;;;;1.20;1.10;;;10.20;99.90;;;;;;5033161;28;20029;-76
2024/03/01 04:25:54;;;;;;;1.17;1.08;;;10.30;99.90;;;;;;5033335;28;20027;-77
2024/03/01 04:28:26;;;;;;;1.00;1.00;;;10.20;99.90;;;;;;5033109;28;20022;-78
2024/03/01 04:30:52;;;;;;;2.33;1.30;;;10.20;99.90;;;;;;5033018;28;20358;-77
2024/03/01 04:33:18;;;;;;;1.42;1.33;;;10.30;99.90;;;;;;5032738;28;20037;-76
2024/03/01 04:35:44;;;;;;;2.03;1.83;;;10.20;99.90;;;;;;5031996;28;20037;-76
2024/03/01 04:38:10;;;;;;;2.25;2.05;;;10.20;99.90;;;;;;5032094;28;20117;-75
2024/03/01 04:40:37;;;;;;;2.55;2.35;;;10.20;99.90;;;;;;5033362;28;20026;-75
2024/03/01 04:43:04;;;;;;;3.60;3.25;;;10.20;99.90;;;;;;5032895;28;20044;-75
2024/03/01 04:45:30;;;;;;;3.80;3.17;;;10.10;99.90;;;;;;5033010;28;20112;-75
2024/03/01 04:47:56;;;;;;;3.75;3.38;;;10.00;99.90;;;;;;5032830;28;20021;-75
2024/03/01 04:50:22;;;;;;;4.63;3.78;;;9.90;99.90;;;;;;5032936;28;20393;-74
2024/03/01 04:52:48;;;;;;;5.07;4.00;;;9.80;99.90;;;;;;5032926;28;20022;-74
2024/03/01 04:55:14;;;;;;;4.32;3.85;;;9.90;99.90;;;;;;5032830;28;20037;-75
2024/03/01 04:57:40;;;;;;;6.05;4.45;;;9.90;99.90;;;;;;5014705;28;20021;-75
2024/03/01 05:00:12;;;;;;;5.35;4.85;;;9.90;99.90;;;;;;5014382;28;20032;-74
2024/03/01 05:02:41;;;;;;;6.40;4.90;;;10.00;99.90;;;;;;5032465;28;20029;-75
2024/03/01 05:05:10;;;;;;;8.00;6.78;;;9.90;99.90;;;;;;5032118;28;20017;-75
2024/03/01 05:07:37;;;;;;;9.75;7.82;;;9.80;99.90;;;;;;5031285;28;20164;-74
2024/03/01 05:10:08;;;;;;;13.95;8.70;;;9.80;99.90;;;;;;5032413;28;20017;-74
2024/03/01 05:12:37;;;;;;;12.23;7.93;;;9.80;99.90;;;;;;5032780;28;20033;-76
2024/03/01 05:15:04;;;;;;;12.50;8.60;;;9.70;99.90;;;;;;5031892;28;20095;-75
2024/03/01 05:17:34;;;;;;;10.88;8.95;;;9.70;99.90;;;;;;5032581;28;20389;-75
2024/03/01 05:19:59;;;;;;;13.77;8.45;;;9.60;99.90;;;;;;5014591;28;20029;-75
2024/03/01 05:22:26;;;;;;;13.23;8.85;;;9.70;99.90;;;;;;5031613;28;20063;-74
2024/03/01 05:24:51;;;;;;;11.82;8.77;;;9.70;99.90;;;;;;5032290;28;20025;-75
2024/03/01 05:27:17;;;;;;;12.57;8.80;;;9.50;99.90;;;;;;5032569;28;20022;-76
2024/03/01 05:29:43;;;;;;;15.18;10.32;;;9.50;99.90;;;;;;5031678;28;20029;-75
2024/03/01 05:32:09;;;;;;;11.27;8.80;;;9.60;99.90;;;;;;5031975;28;20842;-75
2024/03/01 05:34:34;;;;;;;13.07;8.98;;;9.50;99.90;;;;;;5031181;28;20044;-74
2024/03/01 05:37:02;;;;;;;12.27;8.40;;;9.60;99.90;;;;;;5030311;28;20037;-74
2024/03/01 05:39:28;;;;;;;14.10;9.27;;;9.60;99.90;;;;;;5032269;28;20021;-74
2024/03/01 05:41:54;;;;;;;14.65;9.45;;;9.60;99.90;;;;;;5032433;28;20029;-74
2024/03/01 05:44:19;;;;;;;13.68;10.05;;;9.60;99.90;;;;;;5032633;28;20525;-73
2024/03/01 05:46:45;;;;;;;12.52;9.30;;;9.60;99.90;;;;;;5031612;28;20048;-74
2024/03/01 05:49:11;;;;;;;14.73;9.27;;;9.60;99.90;;;;;;5032014;28;20084;-74
2024/03/01 05:51:37;;;;;;;16.15;10.15;;;9.50;99.90;;;;;;5014120;28;20028;-74
2024/03/01 05:54:03;;;;;;;16.65;10.07;;;9.50;99.90;;;;;;5032064;28;20450;-74
2024/03/01 05:56:30;;;;;;;16.30;10.27;;;9.60;99.90;;;;;;5032257;28;20025;-74
2024/03/01 05:58:56;;;;;;;15.80;10.77;;;9.60;99.90;;;;;;5031163;28;20051;-75
2024/03/01 06:01:23;;;;;;;14.52;10.32;;;9.60;99.90;;;;;;5031704;28;20080;-74
2024/03/01 06:03:49;;;;;;;22.73;11.90;;;9.50;99.90;;;;;;5014415;28;20037;-74
2024/03/01 06:06:18;;;;;;;19.00;9.80;;;9.40;99.90;;;;;;5012134;28;20026;-75
2024/03/01 06:08:48;;;;;;;15.50;10.18;;;9.50;99.90;;;;;;5029768;28;20056;-75
2024/03/01 06:11:14;;;;;;;17.02;10.13;;;9.50;99.90;;;;;;5031867;28;20021;-75
2024/03/01 06:13:40;;;;;;;17.40;10.10;;;9.40;99.90;;;;;;5032057;28;20529;-75
2024/03/01 06:16:09;;;;;;;10.85;7.97;;;9.30;99.90;;;;;;5031140;28;20037;-75
2024/03/01 06:18:35;;;;;;;13.15;7.72;;;9.30;99.90;;;;;;5031373;28;20028;-74
2024/03/01 06:21:01;;;;;;;10.75;8.20;;;9.40;99.90;;;;;;5031821;28;20104;-75
2024/03/01 06:23:28;;;;;;;12.95;7.50;;;9.40;99.90;;;;;;5031218;28;20029;-74
2024/03/01 06:25:54;;;;;;;9.60;6.80;;;9.30;99.90;;;;;;5031934;28;20117;-74
2024/03/01 06:28:19;;;;;;;12.77;6.05;;;9.20;99.90;;;;;;5031675;28;20105;-74
2024/03/01 06:30:45;;;;;;;10.90;6.05;;;9.10;99.90;;;;;;5031361;28;20101;-74
2024/03/01 06:33:11;;;;;;;9.20;5.80;;;9.00;99.90;;;;;;5029955;28;20030;-74
2024/03/01 06:35:37;;;;;;;10.65;5.30;;;8.90;99.90;;;;;;5013686;28;20083;-75
2024/03/01 06:38:03;;;;;;;10.18;5.70;;;9.00;99.90;;;;;;5013969;28;20488;-75
2024/03/01 06:40:29;;;;;;;11.50;5.10;;;8.90;99.90;;;;;;5013122;28;20123;-75
2024/03/01 06:42:55;;;;;;;9.73;5.43;;;8.90;99.90;;;;;;5013781;28;20440;-74
2024/03/01 06:45:21;;;;;;;8.98;5.15;;;9.00;99.90;;;;;;5013749;28;20473;-74
2024/03/01 06:47:47;;;;;;;10.88;5.10;;;9.00;99.90;;;;;;5031919;28;20056;-74
2024/03/01 06:50:13;;;;;;;13.15;6.38;;;8.90;99.90;;;;;;5033187;28;20187;-74
2024/03/01 06:52:39;;;;;;;10.85;5.82;;;8.90;99.90;;;;;;5035155;28;20117;-74
2024/03/01 06:55:06;;;;;;;10.15;5.80;;;8.90;99.90;;;;;;5017449;28;20029;-74
2024/03/01 06:57:31;;;;;;;13.57;6.50;;;8.90;99.90;;;;;;5034466;28;20025;-74
2024/03/01 06:59:57;;;;;;;12.85;6.75;;;8.90;99.90;;;;;;5034087;28;20029;-74
2024/03/01 07:02:23;;;;;;;12.90;7.00;;;8.90;99.90;;;;;;5032813;28;20037;-73
2024/03/01 07:04:49;;;;;;;10.65;7.07;;;8.80;99.90;;;;;;5034956;28;20035;-75
2024/03/01 07:07:16;;;;;;;11.15;6.97;;;8.80;99.90;;;;;;5034333;28;20389;-74
2024/03/01 07:09:42;;;;;;;17.50;7.75;;;8.70;99.90;;;;;;5034191;28;20022;-73
2024/03/01 07:12:08;;;;;;;14.77;7.85;;;8.80;99.90;;;;;;5031314;28;20013;-74
2024/03/01 07:14:34;;;;;;;19.45;9.07;;;8.90;99.90;;;;;;5034144;28;20477;-75
2024/03/01 07:17:00;;;;;;;9.20;7.10;;;8.70;99.90;;;;;;5032931;28;20041;-73
2024/03/01 07:19:26;;;;;;;13.30;8.18;;;8.70;99.90;;;;;;5034687;28;20064;-74
2024/03/01 07:21:53;;;;;;;13.52;8.73;;;8.80;99.90;;;;;;5013086;28;20041;-74
2024/03/01 07:24:19;;;;;;;15.63;8.38;;;8.90;99.90;;;;;;5012501;28;20374;-74
2024/03/01 07:26:44;;;;;;;13.27;8.40;;;9.00;99.90;;;;;;5030549;28;20040;-75
2024/03/01 07:29:10;;;;;;;17.13;9.07;;;8.90;99.90;;;;;;5033515;28;20049;-74
2024/03/01 07:31:36;;;;;;;14.52;9.00;;;8.90;99.90;;;;;;5015124;28;20440;-74
2024/03/01 07:34:02;;;;;;;15.15;9.40;;;8.90;99.90;;;;;;5033164;28;20041;-74
2024/03/01 07:36:28;;;;;;;17.90;9.35;;;8.80;99.90;;;;;;5033282;28;20037;-75
2024/03/01 07:38:53;;;;;;;19.90;9.95;;;8.90;99.90;;;;;;5034162;28;20080;-73
2024/03/01 07:41:21;;;;;;;15.38;9.57;;;8.90;99.90;;;;;;5033005;28;20032;-74
2024/03/01 07:43:49;;;;;;;17.92;9.05;;;8.90;99.90;;;;;;5032376;28;20029;-73
2024/03/01 07:46:16;;;;;;;14.15;9.15;;;8.90;99.90;;;;;;5032794;28;20101;-73
2024/03/01 07:48:45;;;;;;;16.30;9.45;;;9.00;99.90;;;;;;5024542;28;20013;-74
2024/03/01 07:51:12;;;;;;;15.43;9.10;;;9.00;99.90;;;;;;5026744;28;20096;-75
2024/03/01 07:53:39;;;;;;;17.58;9.80;;;8.90;99.90;;;;;;5032477;28;20025;-74
2024/03/01 07:56:06;;;;;;;20.13;10.18;;;8.90;99.90;;;;;;5012809;28;20490;-74
2024/03/01 07:58:34;;;;;;;16.83;9.65;;;9.00;99.90;;;;;;5021918;28;20072;-74
2024/03/01 08:01:01;;;;;;;14.10;8.10;;;9.00;99.90;;;;;;5027712;28;20085;-75
2024/03/01 08:03:27;;;;;;;15.13;9.00;;;8.90;99.90;;;;;;5024478;28;20029;-77
2024/03/01 08:05:53;;;;;;;15.65;8.32;;;9.00;99.90;;;;;;5029687;28;20048;-75
2024/03/01 08:08:38;;;;;;;12.32;8.27;;;8.90;99.90;;;;;;5014853;28;20465;-76
2024/03/01 08:11:21;;;;;;;13.05;8.32;;;8.90;99.90;;;;;;5033543;28;20021;-75
2024/03/01 08:13:49;;;;;;;15.65;9.30;;;9.00;99.90;;;;;;5032596;28;20047;-76
2024/03/01 08:16:20;;;;;;;15.65;8.93;;;9.10;99.90;;;;;;5031314;28;20112;-75
2024/03/01 08:18:46;;;;;;;16.50;8.63;;;9.20;99.90;;;;;;5014197;28;20021;-81
2024/03/01 08:21:15;;;;;;;14.00;8.43;;;9.10;99.90;;;;;;5031909;28;20026;-76
2024/03/01 08:23:42;;;;;;;13.00;8.73;;;9.00;99.90;;;;;;5032276;28;20029;-76
2024/03/01 08:26:15;;;;;;;12.23;8.35;;;9.10;99.90;;;;;;5033205;28;20022;-75
2024/03/01 08:28:46;;;;;;;;;;;9.20;99.90;;;;;;5033426;28;20115;-72
2024/03/01 08:31:35;;;;;;;12.65;7.85;;;9.30;99.90;;;;;;5032903;28;19912;-75
2024/03/01 08:34:17;;;;;;;12.02;7.32;;;9.30;99.90;;;;;;5032462;28;20127;-74
2024/03/01 08:36:43;;;;;;;12.45;7.35;;;9.40;99.90;;;;;;5014919;28;20036;-75
2024/03/01 08:39:18;;;;;;;13.52;7.68;;;9.40;99.90;;;;;;5032912;28;20167;-77
2024/03/01 08:41:48;;;;;;;11.43;6.30;;;9.40;99.90;;;;;;5032430;28;20017;-74
2024/03/01 08:44:46;;;;;;;10.05;5.95;;;9.40;99.90;;;;;;5032358;28;20029;-75
2024/03/01 08:47:19;;;;;;;8.45;5.30;;;9.30;99.90;;;;;;5003634;28;20033;-75
2024/03/01 08:49:44;;;;;;;;;;;9.40;99.90;;;;;;5032320;28;20101;-72
2024/03/01 08:52:36;;;;;;;10.18;5.13;;;9.50;99.90;;;;;;5031733;28;20594;-75
2024/03/01 08:55:26;;;;;;;9.32;5.20;;;9.50;99.90;;;;;;5032467;28;20026;-75
2024/03/01 08:57:53;;;;;;;9.77;4.72;;;9.40;99.90;;;;;;5022329;28;20371;-74
2024/03/01 09:00:38;;;;;;;8.07;4.70;;;9.30;99.90;;;;;;5014496;28;20733;-78
2024/03/01 09:03:05;;;;;;;11.70;5.28;;;9.30;99.90;;;;;;5032148;28;20038;-72
2024/03/01 09:05:30;;;;;;;10.45;5.18;;;9.30;99.90;;;;;;5032645;28;20029;-73
2024/03/01 09:08:00;;;;;;;10.52;4.97;;;9.20;99.90;;;;;;5030848;28;20030;-74
2024/03/01 09:10:33;;;;;;;6.90;4.43;;;9.20;99.90;;;;;;5031786;28;20022;-74
2024/03/01 09:12:59;;;;;;;8.18;4.55;;;9.20;99.90;;;;;;5013778;28;20021;-73
2024/03/01 09:15:30;;;;;;;7.25;4.32;;;9.30;99.90;;;;;;5032428;28;20119;-74
2024/03/01 09:17:55;;;;;;;7.32;3.20;;;9.10;99.90;;;;;;5032141;28;20010;-74
2024/03/01 09:20:34;;;;;;;7.40;3.22;;;9.10;99.90;;;;;;5032148;28;20014;-73
2024/03/01 09:23:01;;;;;;;6.72;3.55;;;9.20;99.90;;;;;;5026649;28;20021;-74
2024/03/01 09:25:47;;;;;;;7.80;3.58;;;9.40;99.90;;;;;;5031791;28;20481;-75
2024/03/01 09:28:14;;;;;;;5.90;2.85;;;9.70;99.90;;;;;;5031043;28;20474;-74
2024/03/01 09:30:41;;;;;;;4.35;2.92;;;9.80;99.90;;;;;;5031862;28;20050;-74
2024/03/01 09:33:10;;;;;;;8.15;2.85;;;9.60;99.90;;;;;;5031675;28;20084;-74
2024/03/01 09:35:36;;;;;;;6.88;2.80;;;9.70;99.90;;;;;;5013753;28;20029;-72
2024/03/01 09:38:02;;;;;;;7.72;2.90;;;9.70;99.90;;;;;;5032086;28;20028;-73
2024/03/01 09:40:37;;;;;;;4.82;2.92;;;9.80;99.90;;;;;;5013963;28;20032;-74
2024/03/01 09:43:24;;;;;;;7.18;2.83;;;9.80;99.90;;;;;;5031974;28;20018;-73
2024/03/01 09:45:56;;;;;;;7.50;2.97;;;9.90;99.90;;;;;;5031566;28;20363;-74
2024/03/01 09:48:41;;;;;;;4.10;2.22;;;9.90;99.90;;;;;;5031582;28;20025;-73
2024/03/01 09:51:09;;;;;;;4.65;1.95;;;9.80;99.90;;;;;;5031680;28;20666;-74
2024/03/01 09:53:53;;;;;;;4.57;2.03;;;9.70;99.90;;;;;;5013659;28;20052;-73
2024/03/01 09:56:30;;;;;;;7.80;2.20;;;9.80;99.90;;;;;;5013968;28;20037;-73
2024/03/01 09:59:23;;;;;;;7.65;1.67;;;10.00;99.90;;;;;;5013424;28;20026;-73
2024/03/01 10:01:58;;;;;;;8.93;2.00;;;10.10;99.90;;;;;;5031447;28;20068;-73
2024/03/01 10:04:51;;;;;;;5.85;1.55;;;10.30;99.90;;;;;;5031534;28;20112;-73
2024/03/01 10:07:56;;;;;;;8.02;1.90;;;10.50;99.90;;;;;;5012916;28;20468;-75
2024/03/01 10:10:45;;;;;;;6.10;2.13;;;10.60;99.90;;;;;;5008110;28;20374;-74
2024/03/01 10:13:55;;;;;;;3.92;1.40;;;10.70;99.90;;;;;;5031052;28;20539;-74
2024/03/01 10:16:47;;;;;;;4.28;1.30;;;10.70;99.90;;;;;;5000327;28;20096;-73
2024/03/01 10:19:42;;;;;;;3.15;1.20;;;10.70;99.90;;;;;;5028145;28;20018;-72
2024/03/01 10:22:28;;;;;;;4.22;1.02;;;10.90;99.90;;;;;;5002541;28;20041;-72
2024/03/01 10:25:12;;;;;;;6.68;1.40;;;10.70;99.90;;;;;;5021403;28;20030;-71
2024/03/01 10:27:41;;;;;;;7.55;1.42;;;11.00;99.90;;;;;;5034614;28;20432;-71
2024/03/01 10:30:10;;;;;;;3.83;1.20;;;11.00;99.90;;;;;;5030581;28;20602;-71
2024/03/01 10:32:57;;;;;;;2.78;1.20;;;10.80;99.90;;;;;;5035044;28;20037;-72
2024/03/01 10:35:40;;;;;;;3.78;1.10;;;10.80;99.90;;;;;;5017072;28;20064;-72
2024/03/01 10:38:36;;;;;;;3.95;1.20;;;11.00;99.90;;;;;;5033558;28;20076;-72
2024/03/01 10:41:24;;;;;;;3.13;1.25;;;11.20;99.90;;;;;;5008843;28;20561;-73
2024/03/01 10:44:06;;;;;;;3.10;1.10;;;11.30;99.90;;;;;;5014628;28;20092;-73
2024/03/01 10:46:38;;;;;;;3.67;1.30;;;11.20;99.90;;;;;;5013266;28;20117;-72
2024/03/01 10:49:12;;;;;;;5.25;1.50;;;11.30;99.90;;;;;;5031402;28;20041;-72
2024/03/01 10:51:47;;;;;;;4.93;1.45;;;11.40;99.90;;;;;;5033072;28;20100;-71
2024/03/01 10:54:16;;;;;;;5.53;1.23;;;11.30;99.90;;;;;;5016691;28;20037;-73
2024/03/01 10:56:42;;;;;;;5.32;1.92;;;11.50;99.90;;;;;;5033752;28;20496;-73
2024/03/01 10:59:18;;;;;;;4.50;1.63;;;11.30;99.90;;;;;;5034364;28;20108;-73
2024/03/01 11:01:55;;;;;;;5.38;1.80;;;11.60;99.90;;;;;;5017086;28;20022;-73
2024/03/01 11:04:34;;;;;;;5.85;1.38;;;11.60;99.90;;;;;;5016293;28;20038;-73
2024/03/01 11:07:37;;;;;;;4.43;1.30;;;11.70;99.90;;;;;;5033864;28;20070;-72
2024/03/01 11:10:12;;;;;;;1.40;0.95;;;11.90;99.90;;;;;;5010247;28;20039;-73
2024/03/01 11:13:08;;;;;;;4.00;1.05;;;12.10;99.90;;;;;;5034081;28;20080;-72
2024/03/01 11:15:35;;;;;;;3.25;1.02;;;11.90;99.90;;;;;;5033647;28;20507;-72
2024/03/01 11:18:09;;;;;;;3.90;1.10;;;12.00;99.90;;;;;;5031738;28;20033;-72
2024/03/01 11:20:38;;;;;;;3.22;1.00;;;11.90;99.90;;;;;;5028340;28;20031;-73
2024/03/01 11:23:15;;;;;;;4.40;1.38;;;11.90;99.90;;;;;;5032720;28;20029;-73
2024/03/01 11:26:10;;;;;;;2.53;0.93;;;12.10;99.90;;;;;;5033803;28;20057;-72
2024/03/01 11:28:39;;;;;;;5.70;1.20;;;12.10;99.90;;;;;;5027979;28;20041;-73
2024/03/01 11:31:13;;;;;;;3.30;1.27;;;12.30;99.90;;;;;;5034092;28;20014;-72
2024/03/01 11:33:43;;;;;;;5.53;1.52;;;12.50;99.90;;;;;;5033976;28;20123;-72
2024/03/01 11:36:09;;;;;;;5.78;1.52;;;12.60;99.90;;;;;;5032759;28;20112;-73
2024/03/01 11:38:53;;;;;;;4.47;1.05;;;12.70;99.90;;;;;;5034233;28;20156;-72
2024/03/01 11:41:43;;;;;;;1.83;0.80;;;12.50;99.90;;;;;;5033646;28;20536;-72
2024/03/01 11:44:56;;;;;;;3.13;1.23;;;12.30;99.90;;;;;;5033600;28;20017;-72
2024/03/01 11:47:39;;;;;;;;;;;12.50;99.90;;;;;;5033901;28;20022;-70
2024/03/01 11:50:26;;;;;;;3.35;1.00;;;12.60;99.90;;;;;;5031889;28;19935;-71
2024/03/01 11:53:13;;;;;;;3.55;0.95;;;12.60;99.90;;;;;;5033382;28;20027;-72
2024/03/01 11:56:12;;;;;;;2.67;0.88;;;12.90;99.90;;;;;;5022187;28;20500;-72
2024/03/01 11:59:06;;;;;;;3.15;0.93;;;12.90;99.90;;;;;;5033594;28;20374;-72
2024/03/01 12:01:40;;;;;;;4.68;0.90;;;12.90;99.90;;;;;;5033457;28;20030;-71
2024/03/01 12:04:11;;;;;;;3.88;0.55;;;13.10;99.90;;;;;;5033695;28;20522;-72
2024/03/01 12:06:52;;;;;;;1.63;0.47;;;12.80;99.90;;;;;;5033602;28;20166;-72
2024/03/01 12:09:26;;;;;;;2.75;0.70;;;12.50;99.90;;;;;;5033565;28;20029;-73
2024/03/01 12:12:04;;;;;;;2.88;0.98;;;12.50;99.90;;;;;;5033590;28;20038;-72
2024/03/01 12:14:52;;;;;;;3.75;0.85;;;12.50;99.90;;;;;;5015566;28;20021;-72
2024/03/01 12:17:23;;;;;;;3.25;0.68;;;12.30;99.90;;;;;;5033331;28;20029;-73
2024/03/01 12:19:58;;;;;;;4.88;1.30;;;12.30;99.90;;;;;;5032851;28;20018;-72
2024/03/01 12:22:42;;;;;;;6.70;0.70;;;12.00;99.90;;;;;;5014917;28;20039;-72
2024/03/01 12:25:08;;;;;;;2.92;0.63;;;11.80;99.90;;;;;;5015608;28;20109;-72
2024/03/01 12:28:10;;;;;;;5.68;0.98;;;11.80;99.90;;;;;;5032503;28;20112;-72
2024/03/01 12:30:39;;;;;;;2.95;0.70;;;11.80;99.90;;;;;;5031445;28;20033;-73
2024/03/01 12:33:32;;;;;;;3.15;0.88;;;12.00;99.90;;;;;;5031716;28;20037;-73
2024/03/01 12:36:06;;;;;;;2.15;0.82;;;11.90;99.90;;;;;;5032532;28;20033;-76
2024/03/01 12:38:39;;;;;;;3.90;0.77;;;11.80;99.90;;;;;;5032956;28;20108;-73
2024/03/01 12:41:46;;;;;;;2.13;0.70;;;12.00;99.90;;;;;;5033021;28;20024;-74
2024/03/01 12:44:22;;;;;;;1.80;0.50;;;11.90;99.90;;;;;;4971662;28;20037;-73
2024/03/01 12:47:22;;;;;;;2.08;0.50;;;11.90;99.90;;;;;;5024855;28;20037;-75
2024/03/01 12:49:58;;;;;;;3.00;0.60;;;11.70;99.90;;;;;;5032648;28;20082;-73
2024/03/01 12:52:46;;;;;;;3.63;0.70;;;11.80;99.90;;;;;;5015259;28;20032;-74
2024/03/01 12:55:19;;;;;;;3.72;0.63;;;11.60;99.90;;;;;;5032608;28;20061;-74
2024/03/01 12:57:52;;;;;;;3.83;0.80;;;11.70;99.90;;;;;;5014810;28;20497;-75
2024/03/01 13:00:24;;;;;;;1.55;0.57;;;11.80;99.90;;;;;;5015104;28;20021;-74
2024/03/01 13:03:28;;;;;;;2.25;0.60;;;11.70;99.90;;;;;;5032010;28;20508;-75
2024/03/01 13:05:54;;;;;;;1.20;0.50;;;11.70;99.90;;;;;;5014119;28;20032;-74
2024/03/01 13:08:26;;;;;;;0.98;0.50;;;11.90;99.90;;;;;;5032679;28;20033;-73
2024/03/01 13:11:00;;;;;;;4.63;0.52;;;11.90;99.90;;;;;;5014806;28;20021;-73
2024/03/01 13:13:29;;;;;;;4.63;0.85;;;11.80;99.90;;;;;;5032337;28;20021;-74
2024/03/01 13:16:18;;;;;;;1.40;0.60;;;11.90;99.90;;;;;;5014227;28;20029;-72
2024/03/01 13:19:18;;;;;;;1.92;0.70;;;12.00;99.90;;;;;;5014512;28;20088;-73
2024/03/01 13:21:59;;;;;;;2.03;0.60;;;12.00;99.90;;;;;;5027173;28;20021;-73
2024/03/01 13:24:52;;;;;;;2.40;0.63;;;11.90;99.90;;;;;;5031764;28;20021;-73